createdAt,value
2018-12-06T00:00:14.302Z,16.00
2018-12-06T00:02:41.754Z,16.15
2018-12-06T00:05:09.272Z,16.50
2018-12-06T00:07:36.792Z,15.32
2018-12-06T00:10:04.792Z,16.00
2018-12-06T00:12:32.236Z,15.75
2018-12-06T00:15:11.407Z,15.70
2018-12-06T00:17:39.662Z,15.95
2018-12-06T00:20:07.095Z,15.15
2018-12-06T00:22:34.543Z,15.68
2018-12-06T00:25:01.995Z,16.02
2018-12-06T00:27:29.448Z,16.20
2018-12-06T00:33:24.627Z,14.60
2018-12-06T00:35:52.066Z,15.23
2018-12-06T00:38:19.518Z,15.83
2018-12-06T00:40:46.962Z,15.98
2018-12-06T00:43:14.416Z,14.40
2018-12-06T00:45:41.872Z,16.07
2018-12-06T00:48:09.314Z,16.00
2018-12-06T00:50:36.751Z,16.45
2018-12-06T00:53:04.202Z,16.45
2018-12-06T00:55:31.653Z,16.02
2018-12-06T00:57:59.099Z,16.80
2018-12-06T01:00:26.759Z,18.30
2018-12-06T01:02:54.212Z,15.85
2018-12-06T01:05:21.723Z,16.95
2018-12-06T01:07:49.537Z,14.35
2018-12-06T01:10:16.971Z,16.82
2018-12-06T01:12:44.456Z,14.58
2018-12-06T01:15:11.906Z,17.40
2018-12-06T01:17:39.355Z,15.83
2018-12-06T01:20:07.031Z,16.77
2018-12-06T01:22:34.504Z,16.07
2018-12-06T01:25:02.023Z,17.35
2018-12-06T01:27:29.458Z,15.45
2018-12-06T01:29:56.921Z,15.43
2018-12-06T01:32:25.051Z,16.07
2018-12-06T01:34:52.490Z,15.32
2018-12-06T01:37:20.083Z,15.03
2018-12-06T01:39:47.519Z,15.60
2018-12-06T01:42:14.971Z,15.78
2018-12-06T01:44:42.414Z,15.20
2018-12-06T01:47:09.938Z,16.80
2018-12-06T01:49:37.379Z,15.25
2018-12-06T01:52:04.925Z,15.40
2018-12-06T01:54:32.458Z,14.55
2018-12-06T01:56:59.921Z,14.33
2018-12-06T01:59:27.571Z,14.78
2018-12-06T02:01:55.149Z,15.35
2018-12-06T02:04:22.596Z,14.05
2018-12-06T02:06:50.055Z,15.90
2018-12-06T02:09:17.486Z,15.72
2018-12-06T02:11:45.070Z,16.15
2018-12-06T02:14:12.568Z,16.45
2018-12-06T02:16:40.104Z,16.57
2018-12-06T02:19:07.556Z,16.27
2018-12-06T02:21:35.779Z,16.30
2018-12-06T02:24:03.255Z,16.02
2018-12-06T02:26:30.714Z,15.00
2018-12-06T02:28:58.191Z,16.25
2018-12-06T02:31:25.692Z,16.55
2018-12-06T02:33:53.143Z,16.25
2018-12-06T02:36:21.466Z,16.70
2018-12-06T02:38:48.933Z,16.65
2018-12-06T02:41:16.383Z,14.80
2018-12-06T02:43:43.890Z,15.53
2018-12-06T02:46:11.322Z,14.35
2018-12-06T02:48:38.779Z,15.60
2018-12-06T02:51:06.945Z,15.13
2018-12-06T02:53:34.387Z,15.13
2018-12-06T02:56:01.876Z,16.40
2018-12-06T02:58:29.395Z,16.40
2018-12-06T03:00:56.872Z,18.05
2018-12-06T03:03:24.319Z,17.40
2018-12-06T03:05:51.779Z,15.80
2018-12-06T03:08:19.247Z,14.90
2018-12-06T03:10:46.715Z,15.55
2018-12-06T03:13:14.151Z,15.90
2018-12-06T03:15:41.611Z,15.80
2018-12-06T03:18:09.046Z,16.73
2018-12-06T03:20:36.599Z,15.10
2018-12-06T03:23:04.472Z,15.15
2018-12-06T03:25:31.970Z,15.70
2018-12-06T03:27:59.424Z,15.70
2018-12-06T03:30:26.890Z,15.65
2018-12-06T03:32:54.426Z,15.38
2018-12-06T03:35:21.871Z,14.70
2018-12-06T03:37:49.336Z,15.98
2018-12-06T03:40:16.807Z,15.20
2018-12-06T03:42:44.355Z,14.40
2018-12-06T03:45:11.800Z,15.80
2018-12-06T03:47:39.267Z,14.35
2018-12-06T03:50:06.730Z,14.68
2018-12-06T03:52:34.206Z,14.80
2018-12-06T03:55:01.664Z,13.72
2018-12-06T03:57:29.125Z,15.10
2018-12-06T03:59:56.571Z,14.28
2018-12-06T04:02:24.975Z,14.15
2018-12-06T04:04:52.420Z,13.88
2018-12-06T04:07:19.875Z,14.50
2018-12-06T04:09:47.424Z,14.47
2018-12-06T04:12:15.431Z,15.45
2018-12-06T04:14:42.995Z,14.90
2018-12-06T04:17:10.467Z,15.08
2018-12-06T04:19:37.926Z,16.37
2018-12-06T04:22:05.386Z,14.68
2018-12-06T04:24:32.851Z,15.85
2018-12-06T04:27:00.312Z,14.80
2018-12-06T04:29:27.821Z,14.83
2018-12-06T04:31:55.290Z,14.90
2018-12-06T04:34:22.734Z,15.60
2018-12-06T04:36:50.208Z,15.35
2018-12-06T04:39:17.766Z,14.65
2018-12-06T04:41:45.306Z,15.13
2018-12-06T04:44:12.823Z,14.47
2018-12-06T04:46:40.987Z,14.85
2018-12-06T04:49:08.453Z,15.85
2018-12-06T04:51:35.911Z,14.20
2018-12-06T04:54:03.379Z,14.87
2018-12-06T04:56:30.861Z,15.85
2018-12-06T04:58:58.311Z,15.72
2018-12-06T05:01:25.754Z,15.72
2018-12-06T05:03:53.584Z,14.28
2018-12-06T05:06:21.037Z,14.68
2018-12-06T05:08:48.500Z,14.68
2018-12-06T05:11:15.984Z,14.15
2018-12-06T05:13:43.448Z,13.25
2018-12-06T05:16:10.900Z,14.35
2018-12-06T05:18:38.374Z,14.25
2018-12-06T05:21:05.827Z,13.65
2018-12-06T05:23:33.287Z,13.68
2018-12-06T05:26:01.162Z,14.05
2018-12-06T05:28:28.624Z,15.28
2018-12-06T05:30:56.096Z,14.00
2018-12-06T05:33:23.540Z,14.45
2018-12-06T05:35:50.987Z,14.35
2018-12-06T05:38:18.435Z,15.70
2018-12-06T05:40:45.895Z,13.72
2018-12-06T05:43:13.346Z,14.40
2018-12-06T05:45:42.760Z,15.08
2018-12-06T05:48:11.059Z,12.82
2018-12-06T05:50:38.502Z,13.35
2018-12-06T05:53:05.985Z,13.28
2018-12-06T05:55:33.457Z,13.20
2018-12-06T05:58:00.903Z,13.28
2018-12-06T06:00:28.369Z,13.43
2018-12-06T06:02:55.811Z,14.58
2018-12-06T06:05:23.302Z,13.75
2018-12-06T06:07:50.761Z,13.32
2018-12-06T06:10:18.223Z,14.28
2018-12-06T06:12:45.672Z,15.08
2018-12-06T06:15:13.152Z,13.88
2018-12-06T06:17:40.655Z,15.03
2018-12-06T06:20:08.305Z,12.58
2018-12-06T06:22:35.850Z,13.03
2018-12-06T06:25:03.562Z,14.90
2018-12-06T06:27:31.087Z,16.05
2018-12-06T06:29:58.552Z,16.37
2018-12-06T06:32:25.994Z,15.53
2018-12-06T06:34:54.119Z,13.25
2018-12-06T06:37:21.575Z,13.62
2018-12-06T06:39:49.084Z,16.90
2018-12-06T06:42:17.375Z,16.00
2018-12-06T06:44:44.854Z,14.30
2018-12-06T06:47:12.312Z,18.77
2018-12-06T06:49:39.766Z,13.65
2018-12-06T06:52:07.228Z,15.38
2018-12-06T06:54:34.678Z,15.68
2018-12-06T06:57:02.144Z,17.32
2018-12-06T06:59:29.603Z,13.85
2018-12-06T07:01:57.132Z,13.05
2018-12-06T07:04:24.658Z,15.08
2018-12-06T07:06:52.099Z,14.28
2018-12-06T07:09:19.564Z,15.68
2018-12-06T07:11:47.009Z,14.53
2018-12-06T07:14:14.956Z,14.23
2018-12-06T07:16:42.542Z,12.95
2018-12-06T07:19:10.034Z,12.30
2018-12-06T07:21:37.491Z,11.30
2018-12-06T07:24:05.044Z,11.35
2018-12-06T07:26:34.299Z,12.05
2018-12-06T07:29:01.821Z,12.20
2018-12-06T07:31:29.630Z,12.65
2018-12-06T07:33:57.100Z,12.60
2018-12-06T07:36:25.467Z,11.78
2018-12-06T07:38:53.067Z,11.50
2018-12-06T07:41:20.580Z,11.95
2018-12-06T07:43:48.122Z,12.40
2018-12-06T07:46:15.704Z,11.53
2018-12-06T07:48:43.155Z,11.60
2018-12-06T07:51:10.611Z,12.28
2018-12-06T07:53:38.067Z,12.18
2018-12-06T07:56:05.683Z,12.33
2018-12-06T07:58:33.398Z,11.12
2018-12-06T08:01:01.400Z,12.55
2018-12-06T08:03:28.861Z,12.05
2018-12-06T08:05:56.355Z,12.45
2018-12-06T08:08:24.779Z,11.38
2018-12-06T08:10:52.437Z,10.80
2018-12-06T08:13:19.928Z,11.60
2018-12-06T08:15:47.387Z,11.93
2018-12-06T08:18:14.872Z,12.35
2018-12-06T08:20:42.334Z,11.15
2018-12-06T08:23:10.207Z,12.93
2018-12-06T08:25:39.137Z,11.80
2018-12-06T08:28:06.893Z,13.53
2018-12-06T08:30:34.340Z,13.85
2018-12-06T08:33:01.808Z,14.33
2018-12-06T08:35:30.774Z,13.05
2018-12-06T08:37:59.727Z,16.60
2018-12-06T08:40:27.207Z,17.00
2018-12-06T08:42:54.668Z,16.50
2018-12-06T08:45:22.119Z,15.40
2018-12-06T08:47:49.583Z,15.77
2018-12-06T08:50:17.048Z,15.40
2018-12-06T08:52:44.518Z,14.30
2018-12-06T08:55:11.965Z,16.13
2018-12-06T08:57:39.439Z,20.07
2018-12-06T09:00:08.984Z,14.73
2018-12-06T09:02:36.532Z,15.97
2018-12-06T09:05:05.602Z,16.50
2018-12-06T09:07:33.227Z,13.50
2018-12-06T09:10:01.088Z,15.27
2018-12-06T09:12:28.535Z,15.40
2018-12-06T09:14:56.296Z,15.50
2018-12-06T09:17:23.784Z,14.63
2018-12-06T09:19:51.311Z,14.30
2018-12-06T09:22:18.818Z,15.20
2018-12-06T09:24:46.266Z,14.70
2018-12-06T09:27:13.760Z,12.83
2018-12-06T09:29:41.207Z,12.97
2018-12-06T09:32:08.671Z,13.60
2018-12-06T09:34:38.234Z,13.13
2018-12-06T09:37:05.928Z,13.40
2018-12-06T09:39:33.432Z,15.70
2018-12-06T09:42:01.040Z,12.03
2018-12-06T09:44:28.507Z,11.87
2018-12-06T09:46:55.955Z,11.30
2018-12-06T09:49:23.420Z,10.67
2018-12-06T09:51:50.868Z,12.10
2018-12-06T09:54:18.399Z,12.77
2018-12-06T09:56:45.864Z,12.47
2018-12-06T09:59:13.344Z,10.73
2018-12-06T10:01:40.854Z,10.00
2018-12-06T10:04:08.380Z,13.00
2018-12-06T10:06:35.820Z,11.17
2018-12-06T10:09:05.106Z,11.00
2018-12-06T10:11:32.566Z,10.60
2018-12-06T10:14:00.033Z,10.87
2018-12-06T10:16:28.537Z,9.10
2018-12-06T10:18:55.995Z,9.00
2018-12-06T10:21:23.443Z,9.40
2018-12-06T10:23:50.890Z,9.30
2018-12-06T10:26:18.336Z,8.53
2018-12-06T10:28:45.799Z,10.30
2018-12-06T10:31:13.261Z,9.17
2018-12-06T10:33:40.686Z,9.30
2018-12-06T10:36:08.138Z,7.40
2018-12-06T10:38:35.583Z,7.70
2018-12-06T10:41:03.040Z,8.67
2018-12-06T10:43:30.486Z,7.37
2018-12-06T10:45:57.959Z,7.40
2018-12-06T10:48:25.411Z,8.23
2018-12-06T10:50:56.786Z,9.30
2018-12-06T10:53:24.243Z,6.73
2018-12-06T10:55:51.703Z,7.70
2018-12-06T10:58:19.150Z,7.77
2018-12-06T11:03:50.858Z,7.07
2018-12-06T11:06:18.375Z,8.30
2018-12-06T11:08:45.821Z,4.90
2018-12-06T11:11:13.279Z,6.60
2018-12-06T11:13:40.723Z,6.80
2018-12-06T11:16:08.176Z,5.43
2018-12-06T11:18:35.618Z,6.20
2018-12-06T11:21:03.083Z,5.50
2018-12-06T11:23:30.526Z,5.27
2018-12-06T11:25:57.987Z,5.27
2018-12-06T11:28:25.427Z,4.80
2018-12-06T11:30:52.880Z,5.70
2018-12-06T11:33:20.333Z,5.00
2018-12-06T11:35:47.828Z,6.70
2018-12-06T11:38:15.623Z,4.20
2018-12-06T11:40:43.807Z,4.83
2018-12-06T11:43:11.266Z,4.33
2018-12-06T11:45:38.708Z,5.57
2018-12-06T11:48:10.256Z,4.33
2018-12-06T11:50:49.798Z,4.23
2018-12-06T11:53:17.235Z,4.23
2018-12-06T11:55:44.741Z,6.67
2018-12-06T11:58:12.456Z,4.30
2018-12-06T12:00:39.894Z,5.30
2018-12-06T12:03:07.346Z,3.40
2018-12-06T12:05:34.857Z,5.47
2018-12-06T12:08:02.564Z,3.80
2018-12-06T12:10:29.994Z,4.33
2018-12-06T12:12:57.453Z,3.93
2018-12-06T12:15:24.905Z,6.37
2018-12-06T12:17:52.367Z,5.07
2018-12-06T12:20:19.803Z,3.87
2018-12-06T12:22:47.242Z,4.93
2018-12-06T12:25:14.703Z,4.87
2018-12-06T12:27:42.312Z,5.67
2018-12-06T12:30:09.907Z,7.40
2018-12-06T12:32:37.354Z,5.63
2018-12-06T12:35:05.036Z,9.50
2018-12-06T12:37:32.475Z,7.43
2018-12-06T12:39:59.931Z,5.87
2018-12-06T12:42:27.384Z,5.40
2018-12-06T12:44:54.912Z,5.20
2018-12-06T12:47:22.364Z,4.33
2018-12-06T12:49:49.814Z,7.60
2018-12-06T12:52:17.258Z,4.40
2018-12-06T12:54:44.737Z,4.30
2018-12-06T12:57:12.192Z,4.40
2018-12-06T12:59:39.649Z,3.70
2018-12-06T13:02:07.151Z,5.20
2018-12-06T13:04:34.596Z,5.07
2018-12-06T13:07:08.608Z,4.00
2018-12-06T13:09:36.073Z,6.47
2018-12-06T13:12:03.593Z,5.37
2018-12-06T13:14:31.105Z,4.43
2018-12-06T13:16:58.991Z,4.50
2018-12-06T13:19:26.443Z,4.70
2018-12-06T13:21:53.916Z,4.37
2018-12-06T13:24:21.378Z,4.07
2018-12-06T13:26:48.820Z,4.37
2018-12-06T13:29:16.269Z,5.90
2018-12-06T13:31:43.790Z,6.13
2018-12-06T13:34:11.387Z,5.80
2018-12-06T13:36:38.834Z,4.10
2018-12-06T13:39:06.619Z,6.63
2018-12-06T13:41:34.080Z,4.43
2018-12-06T13:44:01.604Z,4.00
2018-12-06T13:46:29.054Z,4.20
2018-12-06T13:48:56.504Z,3.50
2018-12-06T13:51:23.963Z,4.20
2018-12-06T13:53:51.424Z,5.20
2018-12-06T13:56:18.953Z,3.80
2018-12-06T13:58:46.396Z,4.00
2018-12-06T14:01:14.118Z,3.77
2018-12-06T14:03:41.928Z,4.70
2018-12-06T14:06:09.382Z,4.30
2018-12-06T14:08:38.277Z,3.60
2018-12-06T14:11:05.972Z,3.80
2018-12-06T14:13:33.824Z,2.90
2018-12-06T14:16:01.258Z,4.03
2018-12-06T14:18:28.739Z,3.73
2018-12-06T14:20:56.268Z,3.40
2018-12-06T14:23:23.719Z,3.77
2018-12-06T14:25:51.183Z,4.13
2018-12-06T14:28:18.639Z,3.70
2018-12-06T14:30:46.094Z,3.03
2018-12-06T14:33:13.558Z,4.20
2018-12-06T14:35:41.016Z,3.10
2018-12-06T14:38:08.881Z,3.50
2018-12-06T14:40:36.333Z,3.37
2018-12-06T14:43:05.094Z,3.30
2018-12-06T14:45:32.813Z,3.33
2018-12-06T14:48:00.268Z,2.80
2018-12-06T14:50:27.702Z,3.20
2018-12-06T14:52:55.156Z,3.23
2018-12-06T14:55:22.590Z,2.90
2018-12-06T14:57:50.047Z,3.23
2018-12-06T15:00:17.614Z,3.40
2018-12-06T15:02:45.080Z,7.23
2018-12-06T15:05:12.535Z,5.80
2018-12-06T15:07:40.004Z,7.00
2018-12-06T15:10:07.770Z,6.77
2018-12-06T15:12:35.222Z,6.00
2018-12-06T15:15:02.771Z,4.90
2018-12-06T15:17:30.206Z,3.33
2018-12-06T15:19:57.655Z,3.67
2018-12-06T15:22:25.834Z,3.63
2018-12-06T15:24:54.041Z,4.70
2018-12-06T15:27:21.635Z,3.60
2018-12-06T15:29:50.097Z,3.00
2018-12-06T15:32:17.544Z,3.27
2018-12-06T15:34:45.023Z,3.30
2018-12-06T15:37:13.865Z,3.70
2018-12-06T15:39:41.562Z,2.60
2018-12-06T15:42:09.035Z,2.47
2018-12-06T15:44:36.506Z,2.63
2018-12-06T15:47:03.944Z,3.30
2018-12-06T15:49:31.402Z,3.43
2018-12-06T15:51:58.991Z,2.37
2018-12-06T15:54:28.388Z,2.30
2018-12-06T15:56:55.843Z,3.17
2018-12-06T15:59:23.303Z,2.63
2018-12-06T16:01:50.780Z,3.03
2018-12-06T16:04:18.233Z,2.83
2018-12-06T16:06:45.674Z,3.07
2018-12-06T16:09:13.127Z,3.70
2018-12-06T16:11:43.337Z,3.33
2018-12-06T16:14:10.856Z,3.90
2018-12-06T16:16:38.291Z,2.80
2018-12-06T16:19:05.865Z,2.80
2018-12-06T16:21:33.314Z,2.60
2018-12-06T16:24:00.772Z,3.30
2018-12-06T16:26:28.235Z,2.90
2018-12-06T16:28:56.354Z,3.13
2018-12-06T16:31:23.806Z,3.47
2018-12-06T16:33:51.244Z,3.00
2018-12-06T16:36:18.860Z,2.67
2018-12-06T16:38:46.351Z,2.80
2018-12-06T16:41:15.148Z,3.90
2018-12-06T16:43:42.905Z,2.87
2018-12-06T16:46:12.285Z,3.40
2018-12-06T16:48:42.508Z,2.40
2018-12-06T16:51:09.971Z,2.40
2018-12-06T16:53:37.420Z,3.23
2018-12-06T16:56:04.944Z,3.13
2018-12-06T16:58:32.399Z,3.03
2018-12-06T17:01:01.194Z,4.03
2018-12-06T17:03:28.655Z,2.90
2018-12-06T17:05:56.095Z,3.20
2018-12-06T17:08:23.642Z,2.63
2018-12-06T17:10:51.205Z,3.93
2018-12-06T17:13:19.715Z,2.50
2018-12-06T17:15:47.283Z,2.90
2018-12-06T17:18:15.829Z,3.80
2018-12-06T17:20:43.259Z,2.33
2018-12-06T17:23:10.751Z,2.90
2018-12-06T17:25:38.194Z,3.37
2018-12-06T17:28:05.690Z,2.80
2018-12-06T17:30:33.196Z,3.00
2018-12-06T17:33:00.659Z,3.63
2018-12-06T17:35:28.169Z,3.23
2018-12-06T17:37:55.626Z,2.70
2018-12-06T17:40:23.078Z,3.43
2018-12-06T17:42:50.528Z,2.60
2018-12-06T17:45:17.992Z,2.83
2018-12-06T17:47:45.457Z,2.93
2018-12-06T17:50:12.979Z,2.90
2018-12-06T17:52:40.985Z,2.60
2018-12-06T17:55:08.811Z,3.30
2018-12-06T17:57:36.320Z,2.00
2018-12-06T18:00:06.833Z,2.40
2018-12-06T18:02:34.413Z,2.03
2018-12-06T18:05:01.856Z,2.90
2018-12-06T18:07:29.349Z,3.17
2018-12-06T18:09:56.795Z,2.50
2018-12-06T18:12:24.240Z,3.20
2018-12-06T18:14:51.758Z,2.50
2018-12-06T18:17:19.321Z,3.10
2018-12-06T18:19:48.110Z,4.20
2018-12-06T18:22:15.770Z,3.30
2018-12-06T18:24:43.413Z,3.30
2018-12-06T18:27:10.869Z,5.40
2018-12-06T18:29:38.308Z,4.27
2018-12-06T18:32:05.760Z,7.50
2018-12-06T18:34:33.247Z,5.80
2018-12-06T18:37:01.515Z,3.93
2018-12-06T18:39:28.962Z,7.97
2018-12-06T18:41:56.419Z,3.80
2018-12-06T18:44:23.880Z,4.50
2018-12-06T18:46:53.277Z,3.70
2018-12-06T18:49:20.929Z,4.03
2018-12-06T18:51:48.900Z,4.17
2018-12-06T18:54:17.373Z,3.27
2018-12-06T18:56:44.829Z,3.30
2018-12-06T18:59:12.263Z,4.30
2018-12-06T19:01:39.991Z,5.07
2018-12-06T19:04:07.796Z,3.83
2018-12-06T19:06:39.352Z,4.47
2018-12-06T19:09:06.822Z,4.17
2018-12-06T19:11:34.430Z,4.10
2018-12-06T19:14:04.500Z,4.87
2018-12-06T19:16:32.304Z,6.10
2018-12-06T19:19:01.079Z,5.00
2018-12-06T19:21:28.546Z,4.90
2018-12-06T19:23:55.999Z,5.00
2018-12-06T19:26:23.455Z,5.30
2018-12-06T19:28:51.063Z,6.00
2018-12-06T19:31:18.503Z,4.93
2018-12-06T19:33:45.954Z,5.43
2018-12-06T19:36:13.408Z,5.80
2018-12-06T19:38:40.867Z,5.33
2018-12-06T19:41:08.306Z,5.53
2018-12-06T19:43:35.760Z,4.83
2018-12-06T19:46:03.600Z,4.80
2018-12-06T19:48:31.041Z,5.30
2018-12-06T19:50:58.486Z,7.00
2018-12-06T19:53:25.947Z,7.03
2018-12-06T19:55:53.386Z,4.80
2018-12-06T19:58:20.839Z,4.73
2018-12-06T20:00:48.294Z,4.43
2018-12-06T20:03:15.754Z,4.70
2018-12-06T20:05:43.251Z,7.17
2018-12-06T20:08:10.809Z,3.23
2018-12-06T20:10:38.335Z,4.10
2018-12-06T20:13:05.858Z,3.87
2018-12-06T20:15:33.329Z,2.37
2018-12-06T20:18:00.844Z,4.27
2018-12-06T20:20:28.300Z,5.50
2018-12-06T20:22:55.772Z,3.27
2018-12-06T20:25:23.272Z,2.67
2018-12-06T20:27:50.745Z,3.07
2018-12-06T20:30:18.264Z,3.40
2018-12-06T20:32:45.720Z,4.77
2018-12-06T20:35:13.176Z,4.57
2018-12-06T20:37:40.640Z,3.97
2018-12-06T20:40:08.139Z,4.40
2018-12-06T20:42:35.610Z,4.43
2018-12-06T20:45:03.122Z,3.20
2018-12-06T20:47:30.580Z,3.20
2018-12-06T20:49:58.077Z,3.80
2018-12-06T20:52:25.556Z,2.67
2018-12-06T20:54:53.074Z,3.33
2018-12-06T20:57:20.569Z,3.00
2018-12-06T20:59:48.236Z,3.37
2018-12-06T21:02:15.702Z,2.83
2018-12-06T21:04:43.146Z,3.30
2018-12-06T21:07:10.607Z,2.60
2018-12-06T21:09:38.062Z,3.20
2018-12-06T21:12:06.357Z,2.60
2018-12-06T21:14:33.802Z,2.63
2018-12-06T21:17:01.351Z,3.10
2018-12-06T21:19:28.945Z,2.70
2018-12-06T21:21:56.395Z,2.70
2018-12-06T21:24:23.857Z,3.33
2018-12-06T21:26:54.669Z,2.70
2018-12-06T21:29:22.270Z,3.57
2018-12-06T21:31:49.990Z,3.10
2018-12-06T21:34:17.723Z,2.73
2018-12-06T21:36:45.164Z,2.47
2018-12-06T21:39:12.683Z,6.40
2018-12-06T21:41:40.528Z,2.40
2018-12-06T21:44:08.005Z,2.23
2018-12-06T21:46:35.456Z,3.50
2018-12-06T21:49:03.188Z,3.30
2018-12-06T21:51:30.705Z,2.73
2018-12-06T21:53:58.146Z,2.83
2018-12-06T21:56:27.750Z,3.50
2018-12-06T21:58:56.050Z,3.30
2018-12-06T22:01:23.550Z,3.70
2018-12-06T22:03:50.995Z,4.20
2018-12-06T22:06:18.454Z,5.13
2018-12-06T22:08:45.899Z,4.83
2018-12-06T22:11:13.363Z,6.00
2018-12-06T22:13:40.818Z,4.30
2018-12-06T22:16:08.279Z,6.77
2018-12-06T22:18:35.732Z,4.90
2018-12-06T22:21:03.177Z,5.27
2018-12-06T22:23:30.624Z,5.20
2018-12-06T22:25:58.083Z,3.80
2018-12-06T22:28:25.519Z,2.97
2018-12-06T22:30:52.988Z,3.67
2018-12-06T22:33:20.428Z,3.03
2018-12-06T22:35:47.884Z,2.20
2018-12-06T22:38:15.338Z,2.73
2018-12-06T22:40:42.778Z,3.67
2018-12-06T22:43:10.263Z,3.07
2018-12-06T22:45:55.689Z,3.40
2018-12-06T22:48:23.570Z,3.70
2018-12-06T22:50:51.016Z,3.23
2018-12-06T22:53:18.472Z,3.40
2018-12-06T22:55:45.929Z,3.57
2018-12-06T22:58:13.391Z,3.23
2018-12-06T23:00:43.443Z,3.20
2018-12-06T23:03:10.896Z,3.27
2018-12-06T23:05:38.330Z,3.20
2018-12-06T23:08:05.778Z,2.70
2018-12-06T23:10:33.228Z,2.80
2018-12-06T23:13:00.686Z,3.10
2018-12-06T23:15:28.128Z,2.60
2018-12-06T23:17:55.584Z,2.07
2018-12-06T23:20:24.079Z,2.63
2018-12-06T23:22:51.578Z,2.37
2018-12-06T23:25:19.027Z,2.20
2018-12-06T23:27:46.467Z,2.43
2018-12-06T23:30:13.923Z,2.40
2018-12-06T23:32:41.578Z,2.67
2018-12-06T23:35:09.031Z,2.70
2018-12-06T23:37:36.476Z,2.27
2018-12-06T23:40:05.373Z,2.00
2018-12-06T23:42:32.812Z,2.50
2018-12-06T23:45:00.274Z,3.50
2018-12-06T23:47:27.731Z,2.50
2018-12-06T23:49:55.328Z,1.80
2018-12-06T23:52:22.824Z,2.20
2018-12-06T23:54:50.676Z,2.33
2018-12-06T23:57:18.116Z,2.30
2018-12-06T23:59:45.625Z,2.57
